createdAt,value
2023-08-12T00:00:40.611Z,16.40
2023-08-12T00:03:07.222Z,16.40
2023-08-12T00:05:34.078Z,16.40
2023-08-12T00:08:00.868Z,16.30
2023-08-12T00:10:27.374Z,16.40
2023-08-12T00:12:54.043Z,16.40
2023-08-12T00:15:20.589Z,16.40
2023-08-12T00:17:48.269Z,16.40
2023-08-12T00:20:15.164Z,16.30
2023-08-12T00:22:42.077Z,16.30
2023-08-12T00:25:09.464Z,16.30
2023-08-12T00:27:35.985Z,16.30
2023-08-12T00:30:02.789Z,16.30
2023-08-12T00:32:29.461Z,16.20
2023-08-12T00:34:57.013Z,16.30
2023-08-12T00:37:23.727Z,16.30
2023-08-12T00:39:50.285Z,16.30
2023-08-12T00:42:16.816Z,16.40
2023-08-12T00:44:43.317Z,16.40
2023-08-12T00:47:10.221Z,16.30
2023-08-12T00:49:38.610Z,16.40
2023-08-12T00:52:05.437Z,16.40
2023-08-12T00:54:32.414Z,16.40
2023-08-12T00:56:59.338Z,16.40
2023-08-12T00:59:26.801Z,16.40
2023-08-12T01:01:53.548Z,16.40
2023-08-12T01:04:20.554Z,16.40
2023-08-12T01:06:47.235Z,16.40
2023-08-12T01:09:13.809Z,16.40
2023-08-12T01:11:50.043Z,16.40
2023-08-12T01:14:28.280Z,16.40
2023-08-12T01:17:00.447Z,16.30
2023-08-12T01:19:40.901Z,16.30
2023-08-12T01:22:10.804Z,16.20
2023-08-12T01:24:39.388Z,16.20
2023-08-12T01:27:06.877Z,16.10
2023-08-12T01:29:35.996Z,16.10
2023-08-12T01:32:23.072Z,16.10
2023-08-12T01:35:02.055Z,16.10
2023-08-12T01:37:30.479Z,16.10
2023-08-12T01:39:59.888Z,16.10
2023-08-12T01:42:29.883Z,16.20
2023-08-12T01:44:57.023Z,16.20
2023-08-12T01:47:23.674Z,16.20
2023-08-12T01:49:50.258Z,16.20
2023-08-12T01:52:17.115Z,16.00
2023-08-12T01:54:43.605Z,16.00
2023-08-12T01:57:10.741Z,16.10
2023-08-12T01:59:37.844Z,16.10
2023-08-12T02:02:04.577Z,16.10
2023-08-12T02:04:31.286Z,16.10
2023-08-12T02:06:58.180Z,16.10
2023-08-12T02:09:24.858Z,16.20
2023-08-12T02:11:51.350Z,16.20
2023-08-12T02:14:18.197Z,16.30
2023-08-12T02:16:44.726Z,16.30
2023-08-12T02:19:11.279Z,16.30
2023-08-12T02:21:37.941Z,16.30
2023-08-12T02:24:04.611Z,16.30
2023-08-12T02:26:31.687Z,16.30
2023-08-12T02:28:58.303Z,16.40
2023-08-12T02:31:24.867Z,16.40
2023-08-12T02:33:51.715Z,16.40
2023-08-12T02:36:18.459Z,16.40
2023-08-12T02:38:45.165Z,16.40
2023-08-12T02:41:11.736Z,16.40
2023-08-12T02:43:38.288Z,16.40
2023-08-12T02:46:05.086Z,16.40
2023-08-12T02:48:31.697Z,16.40
2023-08-12T02:50:58.241Z,16.40
2023-08-12T02:53:24.723Z,16.40
2023-08-12T02:55:51.403Z,16.40
2023-08-12T02:58:17.979Z,16.40
2023-08-12T03:00:47.350Z,16.40
2023-08-12T03:03:14.070Z,16.40
2023-08-12T03:05:42.039Z,16.40
2023-08-12T03:08:08.596Z,16.40
2023-08-12T03:10:35.678Z,16.40
2023-08-12T03:13:02.451Z,16.40
2023-08-12T03:15:29.195Z,16.40
2023-08-12T03:17:57.266Z,16.40
2023-08-12T03:20:23.880Z,16.40
2023-08-12T03:22:50.423Z,16.40
2023-08-12T03:25:17.150Z,16.30
2023-08-12T03:27:43.682Z,16.30
2023-08-12T03:30:12.557Z,16.30
2023-08-12T03:32:39.149Z,16.20
2023-08-12T03:35:05.871Z,16.20
2023-08-12T03:37:32.663Z,16.30
2023-08-12T03:39:59.312Z,16.20
2023-08-12T03:42:25.840Z,16.20
2023-08-12T03:44:52.676Z,16.20
2023-08-12T03:47:23.057Z,16.20
2023-08-12T03:49:49.700Z,16.20
2023-08-12T03:52:16.240Z,16.30
2023-08-12T03:54:43.808Z,16.20
2023-08-12T03:57:10.744Z,16.20
2023-08-12T03:59:37.503Z,16.20
2023-08-12T04:02:05.169Z,16.20
2023-08-12T04:04:31.787Z,16.20
2023-08-12T04:06:58.420Z,16.10
2023-08-12T04:09:25.024Z,16.20
2023-08-12T04:11:51.941Z,16.20
2023-08-12T04:14:18.454Z,16.20
2023-08-12T04:16:44.998Z,16.20
2023-08-12T04:19:11.542Z,16.20
2023-08-12T04:21:38.042Z,16.20
2023-08-12T04:24:05.009Z,16.20
2023-08-12T04:26:31.837Z,16.40
2023-08-12T04:28:58.340Z,16.40
2023-08-12T04:31:24.888Z,16.40
2023-08-12T04:33:53.886Z,16.40
2023-08-12T04:36:20.893Z,16.50
2023-08-12T04:38:47.726Z,16.50
2023-08-12T04:41:14.340Z,16.60
2023-08-12T04:43:40.947Z,16.60
2023-08-12T04:46:07.745Z,16.60
2023-08-12T04:48:34.290Z,16.80
2023-08-12T04:51:02.725Z,16.90
2023-08-12T04:53:29.671Z,17.10
2023-08-12T04:55:57.104Z,17.20
2023-08-12T04:58:23.585Z,17.30
2023-08-12T05:00:51.373Z,17.40
2023-08-12T05:03:17.933Z,17.60
2023-08-12T05:05:44.531Z,17.70
2023-08-12T05:08:11.360Z,18.00
2023-08-12T05:10:37.859Z,18.20
2023-08-12T05:13:04.462Z,18.40
2023-08-12T05:15:31.023Z,18.60
2023-08-12T05:17:57.575Z,18.90
2023-08-12T05:20:24.162Z,19.10
2023-08-12T05:22:50.728Z,19.30
2023-08-12T05:25:17.225Z,19.50
2023-08-12T05:27:44.017Z,19.70
2023-08-12T05:30:10.923Z,19.70
2023-08-12T05:32:37.605Z,19.80
2023-08-12T05:35:04.307Z,20.00
2023-08-12T05:37:30.919Z,20.00
2023-08-12T05:39:57.580Z,20.10
2023-08-12T05:42:24.218Z,20.10
2023-08-12T05:44:50.766Z,20.10
2023-08-12T05:47:17.481Z,20.30
2023-08-12T05:49:44.193Z,20.30
2023-08-12T05:52:11.610Z,20.50
2023-08-12T05:54:38.416Z,20.60
2023-08-12T05:57:05.094Z,20.70
2023-08-12T05:59:32.076Z,21.00
2023-08-12T06:01:59.787Z,21.10
2023-08-12T06:04:26.441Z,21.40
2023-08-12T06:06:53.284Z,21.60
2023-08-12T06:09:19.990Z,22.00
2023-08-12T06:11:46.552Z,22.30
2023-08-12T06:14:13.064Z,22.20
2023-08-12T06:16:39.566Z,22.60
2023-08-12T06:19:06.473Z,24.20
2023-08-12T06:21:33.007Z,25.80
2023-08-12T06:23:59.511Z,25.60
2023-08-12T06:26:26.074Z,25.10
2023-08-12T06:28:53.628Z,24.50
2023-08-12T06:31:20.127Z,24.40
2023-08-12T06:33:49.743Z,24.60
2023-08-12T06:36:16.301Z,24.50
2023-08-12T06:38:42.941Z,24.40
2023-08-12T06:41:09.495Z,25.00
2023-08-12T06:43:36.553Z,26.70
2023-08-12T06:46:03.299Z,27.90
2023-08-12T06:48:30.130Z,30.80
2023-08-12T06:50:57.983Z,32.00
2023-08-12T06:53:27.018Z,32.50
2023-08-12T06:55:53.604Z,32.30
2023-08-12T06:58:20.097Z,31.00
2023-08-12T07:00:48.178Z,28.20
2023-08-12T07:03:14.794Z,28.10
2023-08-12T07:05:41.389Z,28.20
2023-08-12T07:08:07.966Z,27.30
2023-08-12T07:10:34.528Z,27.10
2023-08-12T07:13:01.053Z,27.60
2023-08-12T07:15:27.746Z,28.60
2023-08-12T07:17:54.313Z,31.10
2023-08-12T07:20:20.981Z,31.40
2023-08-12T07:22:47.811Z,32.10
2023-08-12T07:25:14.357Z,34.10
2023-08-12T07:27:40.874Z,34.50
2023-08-12T07:30:09.726Z,34.90
2023-08-12T07:32:38.748Z,32.30
2023-08-12T07:35:07.129Z,33.50
2023-08-12T07:37:33.826Z,31.90
2023-08-12T07:40:00.374Z,32.10
2023-08-12T07:42:27.172Z,31.00
2023-08-12T07:44:53.884Z,31.50
2023-08-12T07:47:20.744Z,30.90
2023-08-12T07:49:47.356Z,29.60
2023-08-12T07:52:14.476Z,30.10
2023-08-12T07:54:41.456Z,28.80
2023-08-12T07:57:08.022Z,28.30
2023-08-12T07:59:34.640Z,28.30
2023-08-12T08:02:01.634Z,27.60
2023-08-12T08:04:28.231Z,27.30
2023-08-12T08:06:54.864Z,27.20
2023-08-12T08:09:21.368Z,27.00
2023-08-12T08:11:49.984Z,27.00
2023-08-12T08:14:16.731Z,27.00
2023-08-12T08:16:43.398Z,27.20
2023-08-12T08:19:13.320Z,27.20
2023-08-12T08:21:40.869Z,27.10
2023-08-12T08:24:07.905Z,26.80
2023-08-12T08:26:34.579Z,26.50
2023-08-12T08:29:01.118Z,26.00
2023-08-12T08:31:27.686Z,25.90
2023-08-12T08:33:54.448Z,26.30
2023-08-12T08:36:20.947Z,26.30
2023-08-12T08:38:47.509Z,26.20
2023-08-12T08:41:15.638Z,26.10
2023-08-12T08:43:48.249Z,26.00
2023-08-12T08:46:17.071Z,25.90
2023-08-12T09:10:51.634Z,25.50
2023-08-12T09:13:38.243Z,25.90
2023-08-12T09:16:05.612Z,26.20
2023-08-12T09:18:33.730Z,26.30
2023-08-12T09:21:03.512Z,26.40
2023-08-12T09:23:35.846Z,26.50
2023-08-12T09:26:02.783Z,26.20
2023-08-12T09:28:29.922Z,26.30
2023-08-12T09:30:57.788Z,26.70
2023-08-12T09:33:27.992Z,26.40
2023-08-12T09:35:55.208Z,26.30
2023-08-12T09:38:22.811Z,26.60
2023-08-12T09:40:49.688Z,26.50
2023-08-12T09:43:17.868Z,26.40
2023-08-12T09:45:47.015Z,26.50
2023-08-12T09:48:15.787Z,26.80
2023-08-12T09:50:44.600Z,27.30
2023-08-12T09:53:11.262Z,27.40
2023-08-12T09:55:41.171Z,27.20
2023-08-12T09:58:10.483Z,27.10
2023-08-12T10:00:37.486Z,27.00
2023-08-12T10:03:05.846Z,26.70
2023-08-12T10:05:33.859Z,26.40
2023-08-12T10:08:02.935Z,26.20
2023-08-12T10:10:31.105Z,26.10
2023-08-12T10:12:59.414Z,25.90
2023-08-12T10:15:26.565Z,25.80
2023-08-12T10:17:55.563Z,26.00
2023-08-12T10:20:24.613Z,26.40
2023-08-12T10:22:53.035Z,26.70
2023-08-12T10:25:23.135Z,26.50
2023-08-12T10:27:50.412Z,26.80
2023-08-12T10:30:19.398Z,27.10
2023-08-12T10:32:50.268Z,27.70
2023-08-12T10:35:16.866Z,27.60
2023-08-12T10:37:48.906Z,27.70
2023-08-12T10:40:24.329Z,27.60
2023-08-12T10:42:51.808Z,28.10
2023-08-12T10:45:19.427Z,28.00
2023-08-12T10:48:10.603Z,27.70
2023-08-12T10:50:37.609Z,28.40
2023-08-12T10:54:08.468Z,28.60
2023-08-12T10:57:04.521Z,28.60
2023-08-12T10:59:47.044Z,29.10
2023-08-12T11:02:24.604Z,29.00
2023-08-12T11:04:55.558Z,28.50
2023-08-12T11:07:50.573Z,28.10
2023-08-12T11:10:20.026Z,28.60
2023-08-12T11:12:55.469Z,28.40
2023-08-12T11:15:36.280Z,28.80
2023-08-12T11:18:07.510Z,28.90
2023-08-12T11:20:38.255Z,29.20
2023-08-12T11:23:13.014Z,29.50
2023-08-12T11:25:43.377Z,29.40
2023-08-12T11:28:10.460Z,29.20
2023-08-12T11:30:37.955Z,28.80
2023-08-12T11:33:11.574Z,28.70
2023-08-12T11:35:47.067Z,28.20
2023-08-12T11:38:15.057Z,27.80
2023-08-12T11:40:45.361Z,27.50
2023-08-12T11:43:12.594Z,27.50
2023-08-12T11:45:43.303Z,27.30
2023-08-12T11:48:11.071Z,27.10
2023-08-12T11:50:38.004Z,27.40
2023-08-12T11:53:08.492Z,27.60
2023-08-12T11:55:44.504Z,27.50
2023-08-12T11:58:12.781Z,27.20
2023-08-12T12:00:39.773Z,26.90
2023-08-12T12:03:09.904Z,27.00
2023-08-12T12:05:40.345Z,27.10
2023-08-12T12:08:10.263Z,27.00
2023-08-12T12:10:39.303Z,27.00
2023-08-12T12:13:07.241Z,27.20
2023-08-12T12:15:43.606Z,27.20
2023-08-12T12:18:14.198Z,26.50
2023-08-12T12:21:02.932Z,26.80
2023-08-12T12:23:30.488Z,27.00
2023-08-12T12:26:06.893Z,27.20
2023-08-12T12:28:34.984Z,27.10
2023-08-12T12:31:03.283Z,26.70
2023-08-12T12:33:30.089Z,26.60
2023-08-12T12:36:00.981Z,26.40
2023-08-12T12:38:30.616Z,26.40
2023-08-12T12:41:01.668Z,26.30
2023-08-12T12:43:28.248Z,26.40
2023-08-12T12:45:55.209Z,26.50
2023-08-12T12:48:22.012Z,27.20
2023-08-12T12:50:48.858Z,27.30
2023-08-12T12:53:15.664Z,28.10
2023-08-12T12:55:42.402Z,28.50
2023-08-12T12:58:12.691Z,28.10
2023-08-12T13:00:39.839Z,28.20
2023-08-12T13:03:07.233Z,28.20
2023-08-12T13:05:33.892Z,28.50
2023-08-12T13:08:00.756Z,28.60
2023-08-12T13:10:27.455Z,28.10
2023-08-12T13:12:56.272Z,28.30
2023-08-12T13:15:25.439Z,28.50
2023-08-12T13:17:52.194Z,28.50
2023-08-12T13:20:19.360Z,28.80
2023-08-12T13:22:46.162Z,29.20
2023-08-12T13:25:13.612Z,29.20
2023-08-12T13:27:45.043Z,29.50
2023-08-12T13:30:14.499Z,29.50
2023-08-12T13:32:41.271Z,29.30
2023-08-12T13:35:09.808Z,29.40
2023-08-12T13:37:36.878Z,29.50
2023-08-12T13:40:06.249Z,29.70
2023-08-12T13:42:33.500Z,29.70
2023-08-12T13:45:01.048Z,30.10
2023-08-12T13:47:27.970Z,29.60
2023-08-12T13:49:58.562Z,30.80
2023-08-12T13:52:25.391Z,31.30
2023-08-12T13:54:52.041Z,31.20
2023-08-12T13:57:18.617Z,31.00
2023-08-12T13:59:45.281Z,30.20
2023-08-12T14:02:17.136Z,30.00
2023-08-12T14:04:43.986Z,29.90
2023-08-12T14:07:10.621Z,29.60
2023-08-12T14:09:37.199Z,30.10
2023-08-12T14:12:04.454Z,30.40
2023-08-12T14:14:32.067Z,31.30
2023-08-12T14:16:59.185Z,32.30
2023-08-12T14:19:27.499Z,32.10
2023-08-12T14:21:54.230Z,31.70
2023-08-12T14:24:20.878Z,31.30
2023-08-12T14:26:47.523Z,30.40
2023-08-12T14:29:14.140Z,30.10
2023-08-12T14:31:41.123Z,30.40
2023-08-12T14:34:07.782Z,29.80
2023-08-12T14:36:34.633Z,29.70
2023-08-12T14:39:01.541Z,30.20
2023-08-12T14:41:28.278Z,30.10
2023-08-12T14:43:55.235Z,30.50
2023-08-12T14:46:22.073Z,30.90
2023-08-12T14:48:48.837Z,31.10
2023-08-12T14:51:15.614Z,31.80
2023-08-12T14:53:42.312Z,31.80
2023-08-12T14:56:08.952Z,31.40
2023-08-12T14:58:35.855Z,30.90
2023-08-12T15:01:04.087Z,30.50
2023-08-12T15:03:31.617Z,30.70
2023-08-12T15:06:02.412Z,30.60
2023-08-12T15:08:29.709Z,30.40
2023-08-12T15:10:58.432Z,30.50
2023-08-12T15:13:26.830Z,30.10
2023-08-12T15:15:53.919Z,30.50
2023-08-12T15:18:20.642Z,30.70
2023-08-12T15:20:49.131Z,30.70
2023-08-12T15:23:15.855Z,30.60
2023-08-12T15:25:46.085Z,30.60
2023-08-12T15:28:13.454Z,30.70
2023-08-12T15:30:40.824Z,30.30
2023-08-12T15:33:08.736Z,31.00
2023-08-12T15:35:35.427Z,32.20
2023-08-12T15:38:02.840Z,32.80
2023-08-12T15:40:30.010Z,32.40
2023-08-12T15:42:56.584Z,33.00
2023-08-12T15:45:23.425Z,32.20
2023-08-12T15:47:50.290Z,32.30
2023-08-12T15:50:17.176Z,32.10
2023-08-12T15:52:45.915Z,31.90
2023-08-12T15:55:12.788Z,32.00
2023-08-12T15:57:39.858Z,32.20
2023-08-12T16:00:09.904Z,32.10
2023-08-12T16:02:36.978Z,32.00
2023-08-12T16:05:03.928Z,31.70
2023-08-12T16:07:30.564Z,31.20
2023-08-12T16:09:57.312Z,30.80
2023-08-12T16:12:26.014Z,31.10
2023-08-12T16:14:52.686Z,30.80
2023-08-12T16:17:19.563Z,30.80
2023-08-12T16:19:46.770Z,30.60
2023-08-12T16:22:15.808Z,30.60
2023-08-12T16:24:42.778Z,30.70
2023-08-12T16:27:09.847Z,30.40
2023-08-12T16:29:36.623Z,30.10
2023-08-12T16:32:03.999Z,30.10
2023-08-12T16:34:30.820Z,29.80
2023-08-12T16:37:18.219Z,29.70
2023-08-12T16:39:45.309Z,29.50
2023-08-12T16:42:13.324Z,29.60
2023-08-12T16:44:40.147Z,29.50
2023-08-12T16:47:06.791Z,29.10
2023-08-12T16:49:33.925Z,28.80
2023-08-12T16:52:00.659Z,29.00
2023-08-12T16:54:27.401Z,28.70
2023-08-12T16:56:56.368Z,28.50
2023-08-12T16:59:23.027Z,28.80
2023-08-12T17:01:50.575Z,28.70
2023-08-12T17:04:17.374Z,28.70
2023-08-12T17:06:44.434Z,28.50
2023-08-12T17:09:17.297Z,28.50
2023-08-12T17:11:45.134Z,28.40
2023-08-12T17:14:12.381Z,28.30
2023-08-12T17:16:40.904Z,28.10
2023-08-12T17:19:07.730Z,27.90
2023-08-12T17:21:37.198Z,27.70
2023-08-12T17:24:04.756Z,27.40
2023-08-12T17:26:31.504Z,27.00
2023-08-12T17:28:58.307Z,27.30
2023-08-12T17:31:25.040Z,27.40
2023-08-12T17:33:51.847Z,27.40
2023-08-12T17:36:18.787Z,26.80
2023-08-12T17:38:45.696Z,27.10
2023-08-12T17:41:12.714Z,27.00
2023-08-12T17:43:40.081Z,26.90
2023-08-12T17:46:06.916Z,27.00
2023-08-12T17:48:34.282Z,26.80
2023-08-12T17:51:01.230Z,26.70
2023-08-12T17:53:28.918Z,26.60
2023-08-12T17:55:55.622Z,26.60
2023-08-12T17:58:22.789Z,26.30
2023-08-12T18:00:49.851Z,26.20
2023-08-12T18:03:18.286Z,26.30
2023-08-12T18:05:45.948Z,26.30
2023-08-12T18:08:13.467Z,26.30
2023-08-12T18:10:40.490Z,26.20
2023-08-12T18:13:07.587Z,26.10
2023-08-12T18:15:34.757Z,26.10
2023-08-12T18:18:03.316Z,25.90
2023-08-12T18:20:30.473Z,25.80
2023-08-12T18:22:57.422Z,25.50
2023-08-12T18:25:25.200Z,25.50
2023-08-12T18:27:52.149Z,25.50
2023-08-12T18:30:18.991Z,25.30
2023-08-12T18:32:45.994Z,24.90
2023-08-12T18:35:12.935Z,24.60
2023-08-12T18:37:39.590Z,25.00
2023-08-12T18:40:08.897Z,25.10
2023-08-12T18:42:37.017Z,25.30
2023-08-12T18:45:04.941Z,25.20
2023-08-12T18:47:34.060Z,25.10
2023-08-12T18:50:01.757Z,25.00
2023-08-12T18:52:28.836Z,25.00
2023-08-12T18:54:56.405Z,25.10
2023-08-12T18:57:23.140Z,25.10
2023-08-12T18:59:51.032Z,24.70
2023-08-12T19:02:21.284Z,24.10
2023-08-12T19:04:47.944Z,23.70
2023-08-12T19:07:14.684Z,23.70
2023-08-12T19:09:43.625Z,23.50
2023-08-12T19:12:11.180Z,23.50
2023-08-12T19:14:37.727Z,23.40
2023-08-12T19:17:04.678Z,23.50
2023-08-12T19:19:33.382Z,23.60
2023-08-12T19:22:00.247Z,23.50
2023-08-12T19:24:30.698Z,23.60
2023-08-12T19:26:58.479Z,23.50
2023-08-12T19:29:25.404Z,23.40
2023-08-12T19:31:52.079Z,23.20
2023-08-12T19:34:19.582Z,23.10
2023-08-12T19:36:46.440Z,23.20
2023-08-12T19:39:15.376Z,23.00
2023-08-12T19:41:42.144Z,23.20
2023-08-12T19:44:10.565Z,23.20
2023-08-12T19:46:37.376Z,23.20
2023-08-12T19:49:04.535Z,23.10
2023-08-12T19:51:31.073Z,23.10
2023-08-12T19:53:57.786Z,23.00
2023-08-12T19:56:25.672Z,22.80
2023-08-12T19:58:53.366Z,22.70
2023-08-12T20:01:21.126Z,22.70
2023-08-12T20:03:47.763Z,22.70
2023-08-12T20:06:14.398Z,22.70
2023-08-12T20:08:41.558Z,22.60
2023-08-12T20:11:08.223Z,22.40
2023-08-12T20:13:35.176Z,22.40
2023-08-12T20:16:02.316Z,22.50
2023-08-12T20:18:28.920Z,22.60
2023-08-12T20:20:55.822Z,22.60
2023-08-12T20:23:22.389Z,22.60
2023-08-12T20:25:54.044Z,22.50
2023-08-12T20:28:20.946Z,22.40
2023-08-12T20:30:48.730Z,22.40
2023-08-12T20:33:15.568Z,22.40
2023-08-12T20:35:42.231Z,22.30
2023-08-12T20:38:09.033Z,22.20
2023-08-12T20:40:35.876Z,22.10
2023-08-12T20:43:02.461Z,22.10
2023-08-12T20:45:29.262Z,22.00
2023-08-12T20:47:55.910Z,22.00
2023-08-12T20:50:22.532Z,22.00
2023-08-12T20:52:49.030Z,22.10
2023-08-12T20:55:15.712Z,22.10
2023-08-12T20:57:42.463Z,22.10
2023-08-12T21:00:12.636Z,22.20
2023-08-12T21:02:41.135Z,22.00
2023-08-12T21:05:07.793Z,22.10
2023-08-12T21:07:34.392Z,22.10
2023-08-12T21:10:02.540Z,22.00
2023-08-12T21:12:29.345Z,21.90
2023-08-12T21:14:56.901Z,21.80
2023-08-12T21:17:23.586Z,21.70
2023-08-12T21:19:52.401Z,21.70
2023-08-12T21:22:18.966Z,21.60
2023-08-12T21:24:45.732Z,21.60
2023-08-12T21:27:12.381Z,21.50
2023-08-12T21:29:39.333Z,21.40
2023-08-12T21:32:05.970Z,21.30
2023-08-12T21:34:32.773Z,21.30
2023-08-12T21:36:59.800Z,21.30
2023-08-12T21:39:26.359Z,21.30
2023-08-12T21:41:52.900Z,21.30
2023-08-12T21:44:20.272Z,21.30
2023-08-12T21:46:46.955Z,21.30
2023-08-12T21:49:14.241Z,21.40
2023-08-12T21:51:40.882Z,21.30
2023-08-12T21:54:07.650Z,21.40
2023-08-12T21:56:34.477Z,21.40
2023-08-12T21:59:00.986Z,21.10
2023-08-12T22:01:27.719Z,21.20
2023-08-12T22:03:54.590Z,21.20
2023-08-12T22:06:21.401Z,21.20
2023-08-12T22:08:48.948Z,21.10
2023-08-12T22:11:15.648Z,21.10
2023-08-12T22:13:42.696Z,21.10
2023-08-12T22:16:09.546Z,21.10
2023-08-12T22:18:37.031Z,21.10
2023-08-12T22:21:04.627Z,20.90
2023-08-12T22:23:31.472Z,20.90
2023-08-12T22:26:00.534Z,20.90
2023-08-12T22:28:27.424Z,20.90
2023-08-12T22:30:54.699Z,20.70
2023-08-12T22:33:21.698Z,20.80
2023-08-12T22:35:48.539Z,20.70
2023-08-12T22:38:15.118Z,20.70
2023-08-12T22:40:42.688Z,20.60
2023-08-12T22:43:09.281Z,20.70
2023-08-12T22:45:42.293Z,20.60
2023-08-12T22:48:09.132Z,20.60
2023-08-12T22:50:36.000Z,20.60
2023-08-12T22:53:03.036Z,20.70
2023-08-12T22:55:29.835Z,20.70
2023-08-12T22:57:56.393Z,20.80
2023-08-12T23:00:23.299Z,20.80
2023-08-12T23:02:50.247Z,20.60
2023-08-12T23:05:16.895Z,20.60
2023-08-12T23:07:43.429Z,20.70
2023-08-12T23:10:10.950Z,20.60
2023-08-12T23:12:37.847Z,20.60
2023-08-12T23:15:07.120Z,20.70
2023-08-12T23:17:35.464Z,20.70
2023-08-12T23:20:02.396Z,20.70
2023-08-12T23:22:29.239Z,20.70
2023-08-12T23:24:56.152Z,20.60
2023-08-12T23:27:22.694Z,20.50
2023-08-12T23:29:49.241Z,20.40
2023-08-12T23:32:16.577Z,20.50
2023-08-12T23:34:43.576Z,20.50
2023-08-12T23:37:10.091Z,20.40
2023-08-12T23:39:36.661Z,20.60
2023-08-12T23:42:03.250Z,20.70
2023-08-12T23:44:30.112Z,20.80
2023-08-12T23:46:56.736Z,20.70
2023-08-12T23:49:24.811Z,20.60
2023-08-12T23:51:51.419Z,20.40
2023-08-12T23:54:18.715Z,20.40
2023-08-12T23:56:45.310Z,20.60
2023-08-12T23:59:11.880Z,20.60
